sensor_id;sensor_type;location;lat;lon;timestamp;P1;durP1;ratioP1;P2;durP2;ratioP2
16654;SDS011;8441;51.344;7.022;2022-07-11T00:02:21;0.00;;;0.00;;
16654;SDS011;8441;51.344;7.022;2022-07-11T00:04:50;0.10;;;0.10;;
16654;SDS011;8441;51.344;7.022;2022-07-11T00:07:17;0.10;;;0.10;;
16654;SDS011;8441;51.344;7.022;2022-07-11T00:09:45;0.10;;;0.10;;
16654;SDS011;8441;51.344;7.022;2022-07-11T00:12:13;0.10;;;0.10;;
16654;SDS011;8441;51.344;7.022;2022-07-11T00:14:40;0.10;;;0.10;;
16654;SDS011;8441;51.344;7.022;2022-07-11T00:17:08;0.10;;;0.10;;
16654;SDS011;8441;51.344;7.022;2022-07-11T00:19:36;0.10;;;0.10;;
16654;SDS011;8441;51.344;7.022;2022-07-11T00:22:05;0.10;;;0.10;;
16654;SDS011;8441;51.344;7.022;2022-07-11T00:24:34;0.10;;;0.10;;
16654;SDS011;8441;51.344;7.022;2022-07-11T00:27:01;0.08;;;0.08;;
16654;SDS011;8441;51.344;7.022;2022-07-11T00:29:29;0.10;;;0.10;;
16654;SDS011;8441;51.344;7.022;2022-07-11T00:31:56;0.10;;;0.10;;
16654;SDS011;8441;51.344;7.022;2022-07-11T00:34:24;0.10;;;0.10;;
16654;SDS011;8441;51.344;7.022;2022-07-11T00:36:52;0.10;;;0.10;;
16654;SDS011;8441;51.344;7.022;2022-07-11T00:39:21;0.13;;;0.13;;
16654;SDS011;8441;51.344;7.022;2022-07-11T00:41:48;0.10;;;0.10;;
16654;SDS011;8441;51.344;7.022;2022-07-11T00:44:15;0.10;;;0.10;;
16654;SDS011;8441;51.344;7.022;2022-07-11T00:46:42;0.10;;;0.10;;
16654;SDS011;8441;51.344;7.022;2022-07-11T00:49:10;0.05;;;0.05;;
16654;SDS011;8441;51.344;7.022;2022-07-11T00:51:37;0.10;;;0.10;;
16654;SDS011;8441;51.344;7.022;2022-07-11T00:54:06;0.10;;;0.10;;
16654;SDS011;8441;51.344;7.022;2022-07-11T00:56:37;0.10;;;0.10;;
16654;SDS011;8441;51.344;7.022;2022-07-11T00:59:04;0.10;;;0.10;;
16654;SDS011;8441;51.344;7.022;2022-07-11T01:01:32;0.10;;;0.10;;
16654;SDS011;8441;51.344;7.022;2022-07-11T01:04:01;0.10;;;0.10;;
16654;SDS011;8441;51.344;7.022;2022-07-11T01:06:29;0.10;;;0.10;;
16654;SDS011;8441;51.344;7.022;2022-07-11T01:08:56;0.10;;;0.10;;
16654;SDS011;8441;51.344;7.022;2022-07-11T01:11:23;0.10;;;0.10;;
16654;SDS011;8441;51.344;7.022;2022-07-11T01:13:54;0.00;;;0.00;;
16654;SDS011;8441;51.344;7.022;2022-07-11T01:16:21;0.10;;;0.10;;
16654;SDS011;8441;51.344;7.022;2022-07-11T01:18:53;0.10;;;0.10;;
16654;SDS011;8441;51.344;7.022;2022-07-11T01:21:24;0.10;;;0.10;;
16654;SDS011;8441;51.344;7.022;2022-07-11T01:23:57;0.10;;;0.10;;
16654;SDS011;8441;51.344;7.022;2022-07-11T01:26:25;0.10;;;0.10;;
16654;SDS011;8441;51.344;7.022;2022-07-11T01:28:53;0.10;;;0.10;;
16654;SDS011;8441;51.344;7.022;2022-07-11T01:31:22;0.10;;;0.10;;
16654;SDS011;8441;51.344;7.022;2022-07-11T01:33:51;0.10;;;0.10;;
16654;SDS011;8441;51.344;7.022;2022-07-11T01:36:18;0.10;;;0.10;;
16654;SDS011;8441;51.344;7.022;2022-07-11T01:38:45;0.10;;;0.10;;
16654;SDS011;8441;51.344;7.022;2022-07-11T01:41:14;0.10;;;0.10;;
16654;SDS011;8441;51.344;7.022;2022-07-11T01:43:41;0.10;;;0.10;;
16654;SDS011;8441;51.344;7.022;2022-07-11T01:46:08;0.10;;;0.10;;
16654;SDS011;8441;51.344;7.022;2022-07-11T01:48:36;0.10;;;0.10;;
16654;SDS011;8441;51.344;7.022;2022-07-11T01:51:03;0.10;;;0.10;;
16654;SDS011;8441;51.344;7.022;2022-07-11T01:53:31;0.10;;;0.10;;
16654;SDS011;8441;51.344;7.022;2022-07-11T01:55:58;0.10;;;0.10;;
16654;SDS011;8441;51.344;7.022;2022-07-11T01:58:26;0.10;;;0.10;;
16654;SDS011;8441;51.344;7.022;2022-07-11T02:00:56;0.10;;;0.10;;
16654;SDS011;8441;51.344;7.022;2022-07-11T02:03:23;0.10;;;0.10;;
16654;SDS011;8441;51.344;7.022;2022-07-11T02:05:50;0.10;;;0.10;;
16654;SDS011;8441;51.344;7.022;2022-07-11T02:08:18;0.10;;;0.10;;
16654;SDS011;8441;51.344;7.022;2022-07-11T02:10:47;0.10;;;0.10;;
16654;SDS011;8441;51.344;7.022;2022-07-11T02:13:17;0.10;;;0.10;;
16654;SDS011;8441;51.344;7.022;2022-07-11T02:15:47;0.10;;;0.10;;
16654;SDS011;8441;51.344;7.022;2022-07-11T02:18:16;0.15;;;0.15;;
16654;SDS011;8441;51.344;7.022;2022-07-11T02:20:44;0.13;;;0.13;;
16654;SDS011;8441;51.344;7.022;2022-07-11T02:23:14;0.10;;;0.10;;
16654;SDS011;8441;51.344;7.022;2022-07-11T02:25:42;0.20;;;0.20;;
16654;SDS011;8441;51.344;7.022;2022-07-11T02:28:10;0.10;;;0.10;;
16654;SDS011;8441;51.344;7.022;2022-07-11T02:30:38;0.10;;;0.10;;
16654;SDS011;8441;51.344;7.022;2022-07-11T02:33:08;0.20;;;0.20;;
16654;SDS011;8441;51.344;7.022;2022-07-11T02:35:38;0.10;;;0.10;;
16654;SDS011;8441;51.344;7.022;2022-07-11T02:38:06;0.10;;;0.10;;
16654;SDS011;8441;51.344;7.022;2022-07-11T02:40:33;0.10;;;0.10;;
16654;SDS011;8441;51.344;7.022;2022-07-11T02:43:02;0.10;;;0.10;;
16654;SDS011;8441;51.344;7.022;2022-07-11T02:45:30;0.10;;;0.10;;
16654;SDS011;8441;51.344;7.022;2022-07-11T02:47:58;0.10;;;0.10;;
16654;SDS011;8441;51.344;7.022;2022-07-11T02:50:26;0.10;;;0.10;;
16654;SDS011;8441;51.344;7.022;2022-07-11T02:52:54;0.10;;;0.10;;
16654;SDS011;8441;51.344;7.022;2022-07-11T02:55:21;0.10;;;0.10;;
16654;SDS011;8441;51.344;7.022;2022-07-11T02:57:48;0.10;;;0.10;;
16654;SDS011;8441;51.344;7.022;2022-07-11T03:00:16;0.10;;;0.10;;
16654;SDS011;8441;51.344;7.022;2022-07-11T03:02:44;0.10;;;0.10;;
16654;SDS011;8441;51.344;7.022;2022-07-11T03:05:11;0.10;;;0.10;;
16654;SDS011;8441;51.344;7.022;2022-07-11T03:07:41;0.10;;;0.10;;
16654;SDS011;8441;51.344;7.022;2022-07-11T03:10:08;0.10;;;0.10;;
16654;SDS011;8441;51.344;7.022;2022-07-11T03:12:36;0.10;;;0.10;;
16654;SDS011;8441;51.344;7.022;2022-07-11T03:15:03;0.10;;;0.10;;
16654;SDS011;8441;51.344;7.022;2022-07-11T03:17:32;0.13;;;0.13;;
16654;SDS011;8441;51.344;7.022;2022-07-11T03:19:59;0.10;;;0.10;;
16654;SDS011;8441;51.344;7.022;2022-07-11T03:22:27;0.10;;;0.10;;
16654;SDS011;8441;51.344;7.022;2022-07-11T03:24:55;0.10;;;0.10;;
16654;SDS011;8441;51.344;7.022;2022-07-11T03:27:22;0.10;;;0.10;;
16654;SDS011;8441;51.344;7.022;2022-07-11T03:29:50;0.10;;;0.10;;
16654;SDS011;8441;51.344;7.022;2022-07-11T03:32:17;0.10;;;0.10;;
16654;SDS011;8441;51.344;7.022;2022-07-11T03:34:45;0.10;;;0.10;;
16654;SDS011;8441;51.344;7.022;2022-07-11T03:37:33;0.00;;;0.00;;
16654;SDS011;8441;51.344;7.022;2022-07-11T03:40:02;0.10;;;0.10;;
16654;SDS011;8441;51.344;7.022;2022-07-11T03:42:30;0.10;;;0.10;;
16654;SDS011;8441;51.344;7.022;2022-07-11T03:44:57;0.10;;;0.10;;
16654;SDS011;8441;51.344;7.022;2022-07-11T03:47:24;0.10;;;0.10;;
16654;SDS011;8441;51.344;7.022;2022-07-11T03:49:52;0.10;;;0.10;;
16654;SDS011;8441;51.344;7.022;2022-07-11T03:52:19;0.10;;;0.10;;
16654;SDS011;8441;51.344;7.022;2022-07-11T03:54:46;0.10;;;0.10;;
16654;SDS011;8441;51.344;7.022;2022-07-11T03:57:14;0.10;;;0.10;;
16654;SDS011;8441;51.344;7.022;2022-07-11T03:59:42;0.10;;;0.10;;
16654;SDS011;8441;51.344;7.022;2022-07-11T04:02:09;0.10;;;0.10;;
16654;SDS011;8441;51.344;7.022;2022-07-11T04:04:36;0.10;;;0.10;;
16654;SDS011;8441;51.344;7.022;2022-07-11T04:07:03;0.10;;;0.10;;
16654;SDS011;8441;51.344;7.022;2022-07-11T04:09:31;0.10;;;0.10;;
16654;SDS011;8441;51.344;7.022;2022-07-11T04:11:59;0.10;;;0.10;;
16654;SDS011;8441;51.344;7.022;2022-07-11T04:14:27;0.10;;;0.10;;
16654;SDS011;8441;51.344;7.022;2022-07-11T04:16:54;0.00;;;0.00;;
16654;SDS011;8441;51.344;7.022;2022-07-11T04:19:21;0.10;;;0.10;;
16654;SDS011;8441;51.344;7.022;2022-07-11T04:21:49;0.10;;;0.10;;
16654;SDS011;8441;51.344;7.022;2022-07-11T04:24:16;0.10;;;0.10;;
16654;SDS011;8441;51.344;7.022;2022-07-11T04:26:43;0.10;;;0.10;;
16654;SDS011;8441;51.344;7.022;2022-07-11T04:29:10;0.10;;;0.10;;
16654;SDS011;8441;51.344;7.022;2022-07-11T04:31:39;0.10;;;0.10;;
16654;SDS011;8441;51.344;7.022;2022-07-11T04:34:06;0.08;;;0.08;;
16654;SDS011;8441;51.344;7.022;2022-07-11T04:36:33;0.10;;;0.10;;
16654;SDS011;8441;51.344;7.022;2022-07-11T04:39:01;0.10;;;0.10;;
16654;SDS011;8441;51.344;7.022;2022-07-11T04:41:28;0.10;;;0.10;;
16654;SDS011;8441;51.344;7.022;2022-07-11T04:43:55;0.10;;;0.10;;
16654;SDS011;8441;51.344;7.022;2022-07-11T04:46:23;0.10;;;0.10;;
16654;SDS011;8441;51.344;7.022;2022-07-11T04:48:51;0.10;;;0.10;;
16654;SDS011;8441;51.344;7.022;2022-07-11T04:51:19;0.10;;;0.10;;
16654;SDS011;8441;51.344;7.022;2022-07-11T04:53:46;0.10;;;0.10;;
16654;SDS011;8441;51.344;7.022;2022-07-11T04:56:13;0.10;;;0.10;;
16654;SDS011;8441;51.344;7.022;2022-07-11T04:58:40;0.10;;;0.10;;
16654;SDS011;8441;51.344;7.022;2022-07-11T05:01:08;0.10;;;0.10;;
16654;SDS011;8441;51.344;7.022;2022-07-11T05:03:35;0.10;;;0.10;;
16654;SDS011;8441;51.344;7.022;2022-07-11T05:06:04;0.10;;;0.10;;
16654;SDS011;8441;51.344;7.022;2022-07-11T05:08:31;0.10;;;0.10;;
16654;SDS011;8441;51.344;7.022;2022-07-11T05:11:01;0.10;;;0.10;;
16654;SDS011;8441;51.344;7.022;2022-07-11T05:13:28;0.10;;;0.10;;
16654;SDS011;8441;51.344;7.022;2022-07-11T05:15:56;0.10;;;0.10;;
16654;SDS011;8441;51.344;7.022;2022-07-11T05:18:23;0.10;;;0.10;;
16654;SDS011;8441;51.344;7.022;2022-07-11T05:20:50;0.10;;;0.10;;
16654;SDS011;8441;51.344;7.022;2022-07-11T05:23:19;0.10;;;0.10;;
16654;SDS011;8441;51.344;7.022;2022-07-11T05:25:46;0.10;;;0.10;;
16654;SDS011;8441;51.344;7.022;2022-07-11T05:28:13;0.10;;;0.10;;
16654;SDS011;8441;51.344;7.022;2022-07-11T05:30:41;0.10;;;0.10;;
16654;SDS011;8441;51.344;7.022;2022-07-11T05:33:08;0.10;;;0.10;;
16654;SDS011;8441;51.344;7.022;2022-07-11T05:35:35;0.10;;;0.10;;
16654;SDS011;8441;51.344;7.022;2022-07-11T05:38:02;0.10;;;0.10;;
16654;SDS011;8441;51.344;7.022;2022-07-11T05:40:31;0.10;;;0.10;;
16654;SDS011;8441;51.344;7.022;2022-07-11T05:42:58;0.10;;;0.10;;
16654;SDS011;8441;51.344;7.022;2022-07-11T05:45:26;0.10;;;0.10;;
16654;SDS011;8441;51.344;7.022;2022-07-11T05:47:53;0.10;;;0.10;;
16654;SDS011;8441;51.344;7.022;2022-07-11T05:50:20;0.00;;;0.00;;
16654;SDS011;8441;51.344;7.022;2022-07-11T05:52:47;0.10;;;0.10;;
16654;SDS011;8441;51.344;7.022;2022-07-11T05:55:15;0.10;;;0.10;;
16654;SDS011;8441;51.344;7.022;2022-07-11T05:57:43;0.10;;;0.10;;
16654;SDS011;8441;51.344;7.022;2022-07-11T06:00:11;0.10;;;0.10;;
16654;SDS011;8441;51.344;7.022;2022-07-11T06:02:39;0.10;;;0.10;;
16654;SDS011;8441;51.344;7.022;2022-07-11T06:05:07;0.10;;;0.10;;
16654;SDS011;8441;51.344;7.022;2022-07-11T06:07:36;0.00;;;0.00;;
16654;SDS011;8441;51.344;7.022;2022-07-11T06:10:21;0.00;;;0.00;;
16654;SDS011;8441;51.344;7.022;2022-07-11T06:12:50;0.10;;;0.10;;
16654;SDS011;8441;51.344;7.022;2022-07-11T06:15:17;0.10;;;0.10;;
16654;SDS011;8441;51.344;7.022;2022-07-11T06:17:44;0.10;;;0.10;;
16654;SDS011;8441;51.344;7.022;2022-07-11T06:20:11;0.00;;;0.00;;
16654;SDS011;8441;51.344;7.022;2022-07-11T06:22:38;0.10;;;0.10;;
16654;SDS011;8441;51.344;7.022;2022-07-11T06:25:06;0.10;;;0.10;;
16654;SDS011;8441;51.344;7.022;2022-07-11T06:27:34;0.10;;;0.10;;
16654;SDS011;8441;51.344;7.022;2022-07-11T06:30:03;0.10;;;0.10;;
16654;SDS011;8441;51.344;7.022;2022-07-11T06:32:31;0.05;;;0.05;;
16654;SDS011;8441;51.344;7.022;2022-07-11T06:34:58;0.10;;;0.10;;
16654;SDS011;8441;51.344;7.022;2022-07-11T06:37:25;0.10;;;0.10;;
16654;SDS011;8441;51.344;7.022;2022-07-11T06:39:52;0.10;;;0.10;;
16654;SDS011;8441;51.344;7.022;2022-07-11T06:42:19;0.10;;;0.10;;
16654;SDS011;8441;51.344;7.022;2022-07-11T06:44:46;0.10;;;0.10;;
16654;SDS011;8441;51.344;7.022;2022-07-11T06:47:15;0.00;;;0.00;;
16654;SDS011;8441;51.344;7.022;2022-07-11T06:49:42;0.10;;;0.10;;
16654;SDS011;8441;51.344;7.022;2022-07-11T06:52:10;0.10;;;0.10;;
16654;SDS011;8441;51.344;7.022;2022-07-11T06:54:37;0.10;;;0.10;;
16654;SDS011;8441;51.344;7.022;2022-07-11T06:57:04;0.10;;;0.10;;
16654;SDS011;8441;51.344;7.022;2022-07-11T06:59:32;0.10;;;0.10;;
16654;SDS011;8441;51.344;7.022;2022-07-11T07:01:59;0.05;;;0.05;;
16654;SDS011;8441;51.344;7.022;2022-07-11T07:04:27;0.00;;;0.00;;
16654;SDS011;8441;51.344;7.022;2022-07-11T07:06:54;0.05;;;0.05;;
16654;SDS011;8441;51.344;7.022;2022-07-11T07:09:24;0.10;;;0.10;;
16654;SDS011;8441;51.344;7.022;2022-07-11T07:11:51;0.05;;;0.05;;
16654;SDS011;8441;51.344;7.022;2022-07-11T07:14:19;0.10;;;0.10;;
16654;SDS011;8441;51.344;7.022;2022-07-11T07:16:47;0.00;;;0.00;;
16654;SDS011;8441;51.344;7.022;2022-07-11T07:19:14;0.00;;;0.00;;
16654;SDS011;8441;51.344;7.022;2022-07-11T07:21:43;0.10;;;0.10;;
16654;SDS011;8441;51.344;7.022;2022-07-11T07:24:10;0.10;;;0.10;;
16654;SDS011;8441;51.344;7.022;2022-07-11T07:26:37;0.10;;;0.10;;
16654;SDS011;8441;51.344;7.022;2022-07-11T07:29:05;0.10;;;0.10;;
16654;SDS011;8441;51.344;7.022;2022-07-11T07:31:32;0.10;;;0.10;;
16654;SDS011;8441;51.344;7.022;2022-07-11T07:33:59;0.10;;;0.10;;
16654;SDS011;8441;51.344;7.022;2022-07-11T07:36:26;0.10;;;0.10;;
16654;SDS011;8441;51.344;7.022;2022-07-11T07:38:55;0.10;;;0.10;;
16654;SDS011;8441;51.344;7.022;2022-07-11T07:41:22;0.00;;;0.00;;
16654;SDS011;8441;51.344;7.022;2022-07-11T07:43:49;0.10;;;0.10;;
16654;SDS011;8441;51.344;7.022;2022-07-11T07:46:16;0.00;;;0.00;;
16654;SDS011;8441;51.344;7.022;2022-07-11T07:48:44;0.03;;;0.03;;
16654;SDS011;8441;51.344;7.022;2022-07-11T07:51:11;0.10;;;0.10;;
16654;SDS011;8441;51.344;7.022;2022-07-11T07:53:38;0.10;;;0.10;;
16654;SDS011;8441;51.344;7.022;2022-07-11T07:56:07;0.00;;;0.00;;
16654;SDS011;8441;51.344;7.022;2022-07-11T07:58:34;0.00;;;0.00;;
16654;SDS011;8441;51.344;7.022;2022-07-11T08:01:01;0.10;;;0.10;;
16654;SDS011;8441;51.344;7.022;2022-07-11T08:03:46;0.10;;;0.10;;
16654;SDS011;8441;51.344;7.022;2022-07-11T08:06:13;0.00;;;0.00;;
16654;SDS011;8441;51.344;7.022;2022-07-11T08:08:41;0.05;;;0.05;;
16654;SDS011;8441;51.344;7.022;2022-07-11T08:11:09;0.10;;;0.10;;
16654;SDS011;8441;51.344;7.022;2022-07-11T08:13:37;0.10;;;0.10;;
16654;SDS011;8441;51.344;7.022;2022-07-11T08:16:04;0.00;;;0.00;;
16654;SDS011;8441;51.344;7.022;2022-07-11T08:18:32;0.00;;;0.00;;
16654;SDS011;8441;51.344;7.022;2022-07-11T08:20:59;0.10;;;0.10;;
16654;SDS011;8441;51.344;7.022;2022-07-11T08:23:27;0.10;;;0.10;;
16654;SDS011;8441;51.344;7.022;2022-07-11T08:25:54;0.08;;;0.08;;
16654;SDS011;8441;51.344;7.022;2022-07-11T08:28:23;0.00;;;0.00;;
16654;SDS011;8441;51.344;7.022;2022-07-11T08:30:50;0.10;;;0.10;;
16654;SDS011;8441;51.344;7.022;2022-07-11T08:33:17;0.00;;;0.00;;
16654;SDS011;8441;51.344;7.022;2022-07-11T08:35:44;0.00;;;0.00;;
16654;SDS011;8441;51.344;7.022;2022-07-11T08:38:11;0.10;;;0.10;;
16654;SDS011;8441;51.344;7.022;2022-07-11T08:40:40;0.05;;;0.05;;
16654;SDS011;8441;51.344;7.022;2022-07-11T08:43:12;0.00;;;0.00;;
16654;SDS011;8441;51.344;7.022;2022-07-11T08:45:41;0.00;;;0.00;;
16654;SDS011;8441;51.344;7.022;2022-07-11T08:48:09;0.00;;;0.00;;
16654;SDS011;8441;51.344;7.022;2022-07-11T08:50:37;0.00;;;0.00;;
16654;SDS011;8441;51.344;7.022;2022-07-11T08:53:04;0.10;;;0.10;;
16654;SDS011;8441;51.344;7.022;2022-07-11T08:55:32;0.00;;;0.00;;
16654;SDS011;8441;51.344;7.022;2022-07-11T08:57:59;0.00;;;0.00;;
16654;SDS011;8441;51.344;7.022;2022-07-11T09:00:28;0.00;;;0.00;;
16654;SDS011;8441;51.344;7.022;2022-07-11T09:02:56;0.00;;;0.00;;
16654;SDS011;8441;51.344;7.022;2022-07-11T09:05:25;0.10;;;0.10;;
16654;SDS011;8441;51.344;7.022;2022-07-11T09:07:54;0.00;;;0.00;;
16654;SDS011;8441;51.344;7.022;2022-07-11T09:10:21;0.05;;;0.05;;
16654;SDS011;8441;51.344;7.022;2022-07-11T09:12:57;0.10;;;0.10;;
16654;SDS011;8441;51.344;7.022;2022-07-11T09:15:32;0.10;;;0.10;;
16654;SDS011;8441;51.344;7.022;2022-07-11T09:18:02;0.00;;;0.00;;
16654;SDS011;8441;51.344;7.022;2022-07-11T09:20:47;0.10;;;0.10;;
16654;SDS011;8441;51.344;7.022;2022-07-11T09:23:35;0.00;;;0.00;;
16654;SDS011;8441;51.344;7.022;2022-07-11T09:26:20;0.00;;;0.00;;
16654;SDS011;8441;51.344;7.022;2022-07-11T09:28:58;0.00;;;0.00;;
16654;SDS011;8441;51.344;7.022;2022-07-11T09:31:26;0.08;;;0.08;;
16654;SDS011;8441;51.344;7.022;2022-07-11T09:34:00;0.03;;;0.03;;
16654;SDS011;8441;51.344;7.022;2022-07-11T09:36:35;0.00;;;0.00;;
16654;SDS011;8441;51.344;7.022;2022-07-11T09:39:03;0.00;;;0.00;;
16654;SDS011;8441;51.344;7.022;2022-07-11T09:41:32;0.00;;;0.00;;
16654;SDS011;8441;51.344;7.022;2022-07-11T09:44:07;0.10;;;0.10;;
16654;SDS011;8441;51.344;7.022;2022-07-11T09:46:38;0.00;;;0.00;;
16654;SDS011;8441;51.344;7.022;2022-07-11T09:49:07;0.03;;;0.03;;
16654;SDS011;8441;51.344;7.022;2022-07-11T09:51:35;0.00;;;0.00;;
16654;SDS011;8441;51.344;7.022;2022-07-11T09:54:04;0.10;;;0.10;;
16654;SDS011;8441;51.344;7.022;2022-07-11T09:56:32;0.10;;;0.10;;
16654;SDS011;8441;51.344;7.022;2022-07-11T09:59:01;0.10;;;0.10;;
16654;SDS011;8441;51.344;7.022;2022-07-11T10:01:30;0.00;;;0.00;;
16654;SDS011;8441;51.344;7.022;2022-07-11T10:03:58;0.00;;;0.00;;
16654;SDS011;8441;51.344;7.022;2022-07-11T10:06:27;0.00;;;0.00;;
16654;SDS011;8441;51.344;7.022;2022-07-11T10:08:54;0.00;;;0.00;;
16654;SDS011;8441;51.344;7.022;2022-07-11T10:11:22;0.00;;;0.00;;
16654;SDS011;8441;51.344;7.022;2022-07-11T10:13:49;0.00;;;0.00;;
16654;SDS011;8441;51.344;7.022;2022-07-11T10:16:22;0.00;;;0.00;;
16654;SDS011;8441;51.344;7.022;2022-07-11T10:18:57;0.00;;;0.00;;
16654;SDS011;8441;51.344;7.022;2022-07-11T10:21:44;0.00;;;0.00;;
16654;SDS011;8441;51.344;7.022;2022-07-11T10:24:26;0.00;;;0.00;;
16654;SDS011;8441;51.344;7.022;2022-07-11T10:27:00;0.00;;;0.00;;
16654;SDS011;8441;51.344;7.022;2022-07-11T10:29:33;0.10;;;0.10;;
16654;SDS011;8441;51.344;7.022;2022-07-11T10:32:06;0.10;;;0.10;;
16654;SDS011;8441;51.344;7.022;2022-07-11T10:34:34;0.10;;;0.10;;
16654;SDS011;8441;51.344;7.022;2022-07-11T10:37:04;0.00;;;0.00;;
16654;SDS011;8441;51.344;7.022;2022-07-11T10:39:32;0.00;;;0.00;;
16654;SDS011;8441;51.344;7.022;2022-07-11T10:42:02;0.10;;;0.10;;
16654;SDS011;8441;51.344;7.022;2022-07-11T10:47:32;0.00;;;0.00;;
16654;SDS011;8441;51.344;7.022;2022-07-11T10:50:02;0.10;;;0.10;;
16654;SDS011;8441;51.344;7.022;2022-07-11T10:52:36;0.00;;;0.00;;
16654;SDS011;8441;51.344;7.022;2022-07-11T10:55:08;0.00;;;0.00;;
16654;SDS011;8441;51.344;7.022;2022-07-11T10:57:55;0.00;;;0.00;;
16654;SDS011;8441;51.344;7.022;2022-07-11T11:00:32;0.00;;;0.00;;
16654;SDS011;8441;51.344;7.022;2022-07-11T11:03:00;0.10;;;0.10;;
16654;SDS011;8441;51.344;7.022;2022-07-11T11:14:22;0.10;;;0.10;;
16654;SDS011;8441;51.344;7.022;2022-07-11T11:16:52;0.03;;;0.03;;
16654;SDS011;8441;51.344;7.022;2022-07-11T11:22:19;0.00;;;0.00;;
16654;SDS011;8441;51.344;7.022;2022-07-11T11:24:49;0.00;;;0.00;;
16654;SDS011;8441;51.344;7.022;2022-07-11T11:27:18;0.00;;;0.00;;
16654;SDS011;8441;51.344;7.022;2022-07-11T11:29:50;0.00;;;0.00;;
16654;SDS011;8441;51.344;7.022;2022-07-11T11:32:19;0.00;;;0.00;;
16654;SDS011;8441;51.344;7.022;2022-07-11T11:34:46;0.00;;;0.00;;
16654;SDS011;8441;51.344;7.022;2022-07-11T11:37:15;0.00;;;0.00;;
16654;SDS011;8441;51.344;7.022;2022-07-11T11:39:43;0.00;;;0.00;;
16654;SDS011;8441;51.344;7.022;2022-07-11T11:42:13;0.00;;;0.00;;
16654;SDS011;8441;51.344;7.022;2022-07-11T11:44:51;0.00;;;0.00;;
16654;SDS011;8441;51.344;7.022;2022-07-11T11:47:21;0.08;;;0.08;;
16654;SDS011;8441;51.344;7.022;2022-07-11T11:49:49;0.00;;;0.00;;
16654;SDS011;8441;51.344;7.022;2022-07-11T11:52:16;0.00;;;0.00;;
16654;SDS011;8441;51.344;7.022;2022-07-11T11:54:50;0.00;;;0.00;;
16654;SDS011;8441;51.344;7.022;2022-07-11T11:57:21;0.00;;;0.00;;
16654;SDS011;8441;51.344;7.022;2022-07-11T11:59:50;0.00;;;0.00;;
16654;SDS011;8441;51.344;7.022;2022-07-11T12:02:21;0.00;;;0.00;;
16654;SDS011;8441;51.344;7.022;2022-07-11T12:04:49;0.00;;;0.00;;
16654;SDS011;8441;51.344;7.022;2022-07-11T12:07:26;0.00;;;0.00;;
16654;SDS011;8441;51.344;7.022;2022-07-11T12:09:55;0.00;;;0.00;;
16654;SDS011;8441;51.344;7.022;2022-07-11T12:12:26;0.00;;;0.00;;
16654;SDS011;8441;51.344;7.022;2022-07-11T12:15:24;0.10;;;0.10;;
16654;SDS011;8441;51.344;7.022;2022-07-11T12:18:00;0.00;;;0.00;;
16654;SDS011;8441;51.344;7.022;2022-07-11T12:20:39;0.00;;;0.00;;
16654;SDS011;8441;51.344;7.022;2022-07-11T12:23:09;0.00;;;0.00;;
16654;SDS011;8441;51.344;7.022;2022-07-11T12:25:37;0.00;;;0.00;;
16654;SDS011;8441;51.344;7.022;2022-07-11T12:28:06;0.10;;;0.10;;
16654;SDS011;8441;51.344;7.022;2022-07-11T12:30:35;0.00;;;0.00;;
16654;SDS011;8441;51.344;7.022;2022-07-11T12:33:03;0.00;;;0.00;;
16654;SDS011;8441;51.344;7.022;2022-07-11T12:35:31;0.00;;;0.00;;
16654;SDS011;8441;51.344;7.022;2022-07-11T12:37:59;0.00;;;0.00;;
16654;SDS011;8441;51.344;7.022;2022-07-11T12:40:26;0.00;;;0.00;;
16654;SDS011;8441;51.344;7.022;2022-07-11T12:42:53;0.00;;;0.00;;
16654;SDS011;8441;51.344;7.022;2022-07-11T12:45:22;0.00;;;0.00;;
16654;SDS011;8441;51.344;7.022;2022-07-11T12:47:49;0.00;;;0.00;;
16654;SDS011;8441;51.344;7.022;2022-07-11T12:50:19;0.00;;;0.00;;
16654;SDS011;8441;51.344;7.022;2022-07-11T12:52:48;0.00;;;0.00;;
16654;SDS011;8441;51.344;7.022;2022-07-11T12:55:20;0.00;;;0.00;;
16654;SDS011;8441;51.344;7.022;2022-07-11T12:58:05;0.00;;;0.00;;
16654;SDS011;8441;51.344;7.022;2022-07-11T13:00:35;0.00;;;0.00;;
16654;SDS011;8441;51.344;7.022;2022-07-11T13:03:04;0.00;;;0.00;;
16654;SDS011;8441;51.344;7.022;2022-07-11T13:05:45;0.00;;;0.00;;
16654;SDS011;8441;51.344;7.022;2022-07-11T13:08:27;0.00;;;0.00;;
16654;SDS011;8441;51.344;7.022;2022-07-11T13:11:08;0.00;;;0.00;;
16654;SDS011;8441;51.344;7.022;2022-07-11T13:13:35;0.00;;;0.00;;
16654;SDS011;8441;51.344;7.022;2022-07-11T13:16:04;0.00;;;0.00;;
16654;SDS011;8441;51.344;7.022;2022-07-11T13:18:32;0.00;;;0.00;;
16654;SDS011;8441;51.344;7.022;2022-07-11T13:21:00;0.00;;;0.00;;
16654;SDS011;8441;51.344;7.022;2022-07-11T13:23:28;0.00;;;0.00;;
16654;SDS011;8441;51.344;7.022;2022-07-11T13:25:55;0.00;;;0.00;;
16654;SDS011;8441;51.344;7.022;2022-07-11T13:28:23;0.00;;;0.00;;
16654;SDS011;8441;51.344;7.022;2022-07-11T13:30:50;0.00;;;0.00;;
16654;SDS011;8441;51.344;7.022;2022-07-11T13:33:19;0.00;;;0.00;;
16654;SDS011;8441;51.344;7.022;2022-07-11T13:35:47;0.10;;;0.10;;
16654;SDS011;8441;51.344;7.022;2022-07-11T13:38:15;0.00;;;0.00;;
16654;SDS011;8441;51.344;7.022;2022-07-11T13:40:43;0.00;;;0.00;;
16654;SDS011;8441;51.344;7.022;2022-07-11T13:43:11;0.00;;;0.00;;
16654;SDS011;8441;51.344;7.022;2022-07-11T13:45:38;0.00;;;0.00;;
16654;SDS011;8441;51.344;7.022;2022-07-11T13:48:06;0.00;;;0.00;;
16654;SDS011;8441;51.344;7.022;2022-07-11T13:50:35;0.00;;;0.00;;
16654;SDS011;8441;51.344;7.022;2022-07-11T13:53:02;0.00;;;0.00;;
16654;SDS011;8441;51.344;7.022;2022-07-11T13:55:29;0.00;;;0.00;;
16654;SDS011;8441;51.344;7.022;2022-07-11T13:57:57;0.00;;;0.00;;
16654;SDS011;8441;51.344;7.022;2022-07-11T14:00:27;0.00;;;0.00;;
16654;SDS011;8441;51.344;7.022;2022-07-11T14:02:57;0.00;;;0.00;;
16654;SDS011;8441;51.344;7.022;2022-07-11T14:05:24;0.00;;;0.00;;
16654;SDS011;8441;51.344;7.022;2022-07-11T14:07:53;0.00;;;0.00;;
16654;SDS011;8441;51.344;7.022;2022-07-11T14:10:20;0.00;;;0.00;;
16654;SDS011;8441;51.344;7.022;2022-07-11T14:12:49;0.00;;;0.00;;
16654;SDS011;8441;51.344;7.022;2022-07-11T14:15:16;0.00;;;0.00;;
16654;SDS011;8441;51.344;7.022;2022-07-11T14:17:44;0.00;;;0.00;;
16654;SDS011;8441;51.344;7.022;2022-07-11T14:20:11;0.00;;;0.00;;
16654;SDS011;8441;51.344;7.022;2022-07-11T14:22:38;0.00;;;0.00;;
16654;SDS011;8441;51.344;7.022;2022-07-11T14:25:07;0.00;;;0.00;;
16654;SDS011;8441;51.344;7.022;2022-07-11T14:27:35;0.00;;;0.00;;
16654;SDS011;8441;51.344;7.022;2022-07-11T14:30:03;0.00;;;0.00;;
16654;SDS011;8441;51.344;7.022;2022-07-11T14:32:31;0.00;;;0.00;;
16654;SDS011;8441;51.344;7.022;2022-07-11T14:34:58;0.00;;;0.00;;
16654;SDS011;8441;51.344;7.022;2022-07-11T14:37:26;0.00;;;0.00;;
16654;SDS011;8441;51.344;7.022;2022-07-11T14:39:53;0.00;;;0.00;;
16654;SDS011;8441;51.344;7.022;2022-07-11T14:42:22;0.00;;;0.00;;
16654;SDS011;8441;51.344;7.022;2022-07-11T14:44:49;0.00;;;0.00;;
16654;SDS011;8441;51.344;7.022;2022-07-11T14:47:16;0.00;;;0.00;;
16654;SDS011;8441;51.344;7.022;2022-07-11T14:49:44;0.00;;;0.00;;
16654;SDS011;8441;51.344;7.022;2022-07-11T14:52:11;0.00;;;0.00;;
16654;SDS011;8441;51.344;7.022;2022-07-11T14:54:38;0.00;;;0.00;;
16654;SDS011;8441;51.344;7.022;2022-07-11T14:57:05;0.00;;;0.00;;
16654;SDS011;8441;51.344;7.022;2022-07-11T14:59:34;0.00;;;0.00;;
16654;SDS011;8441;51.344;7.022;2022-07-11T15:02:01;0.00;;;0.00;;
16654;SDS011;8441;51.344;7.022;2022-07-11T15:04:29;0.00;;;0.00;;
16654;SDS011;8441;51.344;7.022;2022-07-11T15:06:56;0.00;;;0.00;;
16654;SDS011;8441;51.344;7.022;2022-07-11T15:09:40;0.00;;;0.00;;
16654;SDS011;8441;51.344;7.022;2022-07-11T15:12:25;0.00;;;0.00;;
16654;SDS011;8441;51.344;7.022;2022-07-11T15:14:54;0.00;;;0.00;;
16654;SDS011;8441;51.344;7.022;2022-07-11T15:17:22;0.00;;;0.00;;
16654;SDS011;8441;51.344;7.022;2022-07-11T15:19:50;0.00;;;0.00;;
16654;SDS011;8441;51.344;7.022;2022-07-11T15:22:18;0.00;;;0.00;;
16654;SDS011;8441;51.344;7.022;2022-07-11T15:24:47;0.00;;;0.00;;
16654;SDS011;8441;51.344;7.022;2022-07-11T15:27:14;0.00;;;0.00;;